sensor_id;sensor_type;location;lat;lon;timestamp;P1;durP1;ratioP1;P2;durP2;ratioP2
18875;SDS011;9570;50.854;13.778;2023-04-07T00:01:17;5.63;;;3.60;;
18875;SDS011;9570;50.854;13.778;2023-04-07T00:03:43;4.20;;;3.77;;
18875;SDS011;9570;50.854;13.778;2023-04-07T00:06:08;3.83;;;3.43;;
18875;SDS011;9570;50.854;13.778;2023-04-07T00:08:34;4.00;;;3.47;;
18875;SDS011;9570;50.854;13.778;2023-04-07T00:11:00;3.73;;;3.10;;
18875;SDS011;9570;50.854;13.778;2023-04-07T00:13:25;4.60;;;3.30;;
18875;SDS011;9570;50.854;13.778;2023-04-07T00:15:51;5.30;;;3.30;;
18875;SDS011;9570;50.854;13.778;2023-04-07T00:18:16;4.07;;;3.53;;
18875;SDS011;9570;50.854;13.778;2023-04-07T00:20:42;4.63;;;3.10;;
18875;SDS011;9570;50.854;13.778;2023-04-07T00:23:07;3.37;;;3.00;;
18875;SDS011;9570;50.854;13.778;2023-04-07T00:25:33;5.93;;;3.60;;
18875;SDS011;9570;50.854;13.778;2023-04-07T00:27:58;4.20;;;3.57;;
18875;SDS011;9570;50.854;13.778;2023-04-07T00:30:24;3.73;;;3.17;;
18875;SDS011;9570;50.854;13.778;2023-04-07T00:32:50;6.90;;;3.65;;
18875;SDS011;9570;50.854;13.778;2023-04-07T00:35:16;5.17;;;3.40;;
18875;SDS011;9570;50.854;13.778;2023-04-07T00:37:41;3.70;;;3.17;;
18875;SDS011;9570;50.854;13.778;2023-04-07T00:40:07;3.67;;;3.13;;
18875;SDS011;9570;50.854;13.778;2023-04-07T00:42:33;3.87;;;3.27;;
18875;SDS011;9570;50.854;13.778;2023-04-07T00:44:59;4.23;;;3.70;;
18875;SDS011;9570;50.854;13.778;2023-04-07T00:47:25;6.03;;;3.40;;
18875;SDS011;9570;50.854;13.778;2023-04-07T00:49:50;6.50;;;3.60;;
18875;SDS011;9570;50.854;13.778;2023-04-07T00:52:16;5.57;;;3.53;;
18875;SDS011;9570;50.854;13.778;2023-04-07T00:54:42;4.60;;;3.38;;
18875;SDS011;9570;50.854;13.778;2023-04-07T00:57:10;4.20;;;3.25;;
18875;SDS011;9570;50.854;13.778;2023-04-07T00:59:36;4.87;;;3.53;;
18875;SDS011;9570;50.854;13.778;2023-04-07T01:04:43;5.40;;;3.50;;
18875;SDS011;9570;50.854;13.778;2023-04-07T01:07:31;3.60;;;3.00;;
18875;SDS011;9570;50.854;13.778;2023-04-07T01:10:04;4.55;;;3.40;;
18875;SDS011;9570;50.854;13.778;2023-04-07T01:12:43;5.15;;;3.00;;
18875;SDS011;9570;50.854;13.778;2023-04-07T01:15:16;4.68;;;3.33;;
18875;SDS011;9570;50.854;13.778;2023-04-07T01:17:47;4.63;;;3.45;;
18875;SDS011;9570;50.854;13.778;2023-04-07T01:20:22;3.83;;;3.42;;
18875;SDS011;9570;50.854;13.778;2023-04-07T01:22:55;3.65;;;2.95;;
18875;SDS011;9570;50.854;13.778;2023-04-07T01:28:44;4.70;;;3.60;;
18875;SDS011;9570;50.854;13.778;2023-04-07T01:31:23;3.10;;;2.72;;
18875;SDS011;9570;50.854;13.778;2023-04-07T01:33:50;4.35;;;3.20;;
18875;SDS011;9570;50.854;13.778;2023-04-07T01:36:19;3.45;;;3.10;;
18875;SDS011;9570;50.854;13.778;2023-04-07T01:38:45;4.50;;;3.08;;
18875;SDS011;9570;50.854;13.778;2023-04-07T01:41:12;6.35;;;3.33;;
18875;SDS011;9570;50.854;13.778;2023-04-07T01:43:39;3.85;;;3.10;;
18875;SDS011;9570;50.854;13.778;2023-04-07T01:46:05;4.70;;;3.22;;
18875;SDS011;9570;50.854;13.778;2023-04-07T01:48:31;5.90;;;3.23;;
18875;SDS011;9570;50.854;13.778;2023-04-07T01:50:58;5.30;;;3.25;;
18875;SDS011;9570;50.854;13.778;2023-04-07T01:53:24;3.70;;;3.03;;
18875;SDS011;9570;50.854;13.778;2023-04-07T01:55:51;4.20;;;3.25;;
18875;SDS011;9570;50.854;13.778;2023-04-07T01:58:18;4.82;;;3.08;;
18875;SDS011;9570;50.854;13.778;2023-04-07T02:00:43;3.87;;;3.10;;
18875;SDS011;9570;50.854;13.778;2023-04-07T02:03:13;5.43;;;3.10;;
18875;SDS011;9570;50.854;13.778;2023-04-07T02:05:47;5.65;;;3.55;;
18875;SDS011;9570;50.854;13.778;2023-04-07T02:08:15;4.40;;;3.05;;
18875;SDS011;9570;50.854;13.778;2023-04-07T02:10:42;6.00;;;3.75;;
18875;SDS011;9570;50.854;13.778;2023-04-07T02:13:10;3.58;;;2.92;;
18875;SDS011;9570;50.854;13.778;2023-04-07T02:15:39;4.68;;;3.40;;
18875;SDS011;9570;50.854;13.778;2023-04-07T02:18:06;6.00;;;3.00;;
18875;SDS011;9570;50.854;13.778;2023-04-07T02:20:34;4.47;;;3.33;;
18875;SDS011;9570;50.854;13.778;2023-04-07T02:23:01;4.75;;;3.30;;
18875;SDS011;9570;50.854;13.778;2023-04-07T02:25:28;4.60;;;3.63;;
18875;SDS011;9570;50.854;13.778;2023-04-07T02:27:56;4.55;;;3.20;;
18875;SDS011;9570;50.854;13.778;2023-04-07T02:30:23;4.03;;;3.38;;
18875;SDS011;9570;50.854;13.778;2023-04-07T02:32:50;5.68;;;3.55;;
18875;SDS011;9570;50.854;13.778;2023-04-07T02:35:16;5.87;;;3.37;;
18875;SDS011;9570;50.854;13.778;2023-04-07T02:37:42;4.33;;;3.07;;
18875;SDS011;9570;50.854;13.778;2023-04-07T02:40:09;4.15;;;3.28;;
18875;SDS011;9570;50.854;13.778;2023-04-07T02:42:35;4.90;;;3.60;;
18875;SDS011;9570;50.854;13.778;2023-04-07T02:45:01;5.97;;;3.50;;
18875;SDS011;9570;50.854;13.778;2023-04-07T02:47:27;4.75;;;3.40;;
18875;SDS011;9570;50.854;13.778;2023-04-07T02:49:52;5.83;;;3.73;;
18875;SDS011;9570;50.854;13.778;2023-04-07T02:52:18;4.47;;;3.57;;
18875;SDS011;9570;50.854;13.778;2023-04-07T02:54:43;6.13;;;3.20;;
18875;SDS011;9570;50.854;13.778;2023-04-07T02:57:09;4.70;;;3.50;;
18875;SDS011;9570;50.854;13.778;2023-04-07T02:59:34;5.10;;;3.33;;
18875;SDS011;9570;50.854;13.778;2023-04-07T03:02:00;4.50;;;3.30;;
18875;SDS011;9570;50.854;13.778;2023-04-07T03:04:25;3.97;;;3.47;;
18875;SDS011;9570;50.854;13.778;2023-04-07T03:06:51;4.33;;;3.60;;
18875;SDS011;9570;50.854;13.778;2023-04-07T03:09:17;4.77;;;3.50;;
18875;SDS011;9570;50.854;13.778;2023-04-07T03:11:42;7.33;;;4.10;;
18875;SDS011;9570;50.854;13.778;2023-04-07T03:14:07;6.63;;;4.40;;
18875;SDS011;9570;50.854;13.778;2023-04-07T03:16:33;5.47;;;4.00;;
18875;SDS011;9570;50.854;13.778;2023-04-07T03:18:58;6.37;;;3.50;;
18875;SDS011;9570;50.854;13.778;2023-04-07T03:21:24;6.93;;;3.70;;
18875;SDS011;9570;50.854;13.778;2023-04-07T03:23:49;6.50;;;3.90;;
18875;SDS011;9570;50.854;13.778;2023-04-07T03:26:15;7.63;;;3.97;;
18875;SDS011;9570;50.854;13.778;2023-04-07T03:28:40;5.63;;;4.37;;
18875;SDS011;9570;50.854;13.778;2023-04-07T03:31:06;6.87;;;4.30;;
18875;SDS011;9570;50.854;13.778;2023-04-07T03:33:31;7.70;;;4.13;;
18875;SDS011;9570;50.854;13.778;2023-04-07T03:35:57;5.83;;;4.17;;
18875;SDS011;9570;50.854;13.778;2023-04-07T03:38:23;6.50;;;4.17;;
18875;SDS011;9570;50.854;13.778;2023-04-07T03:40:48;5.33;;;3.93;;
18875;SDS011;9570;50.854;13.778;2023-04-07T03:43:14;5.40;;;4.33;;
18875;SDS011;9570;50.854;13.778;2023-04-07T03:45:40;8.55;;;4.53;;
18875;SDS011;9570;50.854;13.778;2023-04-07T03:48:06;5.73;;;4.47;;
18875;SDS011;9570;50.854;13.778;2023-04-07T03:50:35;6.28;;;4.78;;
18875;SDS011;9570;50.854;13.778;2023-04-07T03:53:04;7.63;;;5.05;;
18875;SDS011;9570;50.854;13.778;2023-04-07T03:55:30;9.00;;;5.03;;
18875;SDS011;9570;50.854;13.778;2023-04-07T03:57:56;6.67;;;4.80;;
18875;SDS011;9570;50.854;13.778;2023-04-07T04:00:21;5.67;;;4.43;;
18875;SDS011;9570;50.854;13.778;2023-04-07T04:02:47;7.60;;;4.87;;
18875;SDS011;9570;50.854;13.778;2023-04-07T04:05:12;7.47;;;4.80;;
18875;SDS011;9570;50.854;13.778;2023-04-07T04:07:38;7.80;;;4.60;;
18875;SDS011;9570;50.854;13.778;2023-04-07T04:10:03;8.37;;;4.67;;
18875;SDS011;9570;50.854;13.778;2023-04-07T04:12:29;7.47;;;5.35;;
18875;SDS011;9570;50.854;13.778;2023-04-07T04:14:55;7.57;;;4.70;;
18875;SDS011;9570;50.854;13.778;2023-04-07T04:17:20;6.90;;;4.67;;
18875;SDS011;9570;50.854;13.778;2023-04-07T04:19:46;9.07;;;5.00;;
18875;SDS011;9570;50.854;13.778;2023-04-07T04:22:11;6.27;;;4.70;;
18875;SDS011;9570;50.854;13.778;2023-04-07T04:24:37;7.17;;;4.70;;
18875;SDS011;9570;50.854;13.778;2023-04-07T04:27:02;7.13;;;4.63;;
18875;SDS011;9570;50.854;13.778;2023-04-07T04:29:28;7.23;;;4.57;;
18875;SDS011;9570;50.854;13.778;2023-04-07T04:31:53;7.63;;;4.67;;
18875;SDS011;9570;50.854;13.778;2023-04-07T04:34:19;5.23;;;4.23;;
18875;SDS011;9570;50.854;13.778;2023-04-07T04:36:44;5.40;;;4.50;;
18875;SDS011;9570;50.854;13.778;2023-04-07T04:39:10;6.43;;;4.87;;
18875;SDS011;9570;50.854;13.778;2023-04-07T04:41:36;7.20;;;5.32;;
18875;SDS011;9570;50.854;13.778;2023-04-07T04:44:02;7.07;;;4.80;;
18875;SDS011;9570;50.854;13.778;2023-04-07T04:46:28;8.60;;;5.17;;
18875;SDS011;9570;50.854;13.778;2023-04-07T04:48:53;7.17;;;5.03;;
18875;SDS011;9570;50.854;13.778;2023-04-07T04:51:19;7.60;;;4.77;;
18875;SDS011;9570;50.854;13.778;2023-04-07T04:53:44;6.53;;;4.70;;
18875;SDS011;9570;50.854;13.778;2023-04-07T04:56:10;7.37;;;5.03;;
18875;SDS011;9570;50.854;13.778;2023-04-07T04:58:36;7.33;;;5.07;;
18875;SDS011;9570;50.854;13.778;2023-04-07T05:01:04;7.93;;;4.82;;
18875;SDS011;9570;50.854;13.778;2023-04-07T05:03:30;7.20;;;5.20;;
18875;SDS011;9570;50.854;13.778;2023-04-07T05:05:55;7.20;;;4.77;;
18875;SDS011;9570;50.854;13.778;2023-04-07T05:08:20;6.80;;;5.07;;
18875;SDS011;9570;50.854;13.778;2023-04-07T05:10:46;8.33;;;5.27;;
18875;SDS011;9570;50.854;13.778;2023-04-07T05:13:11;7.83;;;5.43;;
18875;SDS011;9570;50.854;13.778;2023-04-07T05:15:38;8.03;;;5.20;;
18875;SDS011;9570;50.854;13.778;2023-04-07T05:18:05;7.35;;;5.03;;
18875;SDS011;9570;50.854;13.778;2023-04-07T05:20:30;7.10;;;4.87;;
18875;SDS011;9570;50.854;13.778;2023-04-07T05:22:56;8.83;;;5.50;;
18875;SDS011;9570;50.854;13.778;2023-04-07T05:25:21;8.43;;;5.43;;
18875;SDS011;9570;50.854;13.778;2023-04-07T05:27:46;7.97;;;5.03;;
18875;SDS011;9570;50.854;13.778;2023-04-07T05:30:12;5.63;;;4.63;;
18875;SDS011;9570;50.854;13.778;2023-04-07T05:32:38;12.10;;;7.10;;
18875;SDS011;9570;50.854;13.778;2023-04-07T05:35:03;10.80;;;7.17;;
18875;SDS011;9570;50.854;13.778;2023-04-07T05:37:30;9.98;;;7.28;;
18875;SDS011;9570;50.854;13.778;2023-04-07T05:39:55;11.60;;;7.63;;
18875;SDS011;9570;50.854;13.778;2023-04-07T05:42:21;9.90;;;6.93;;
18875;SDS011;9570;50.854;13.778;2023-04-07T05:44:46;10.87;;;6.33;;
18875;SDS011;9570;50.854;13.778;2023-04-07T05:47:12;10.27;;;6.70;;
18875;SDS011;9570;50.854;13.778;2023-04-07T05:49:37;8.50;;;5.47;;
18875;SDS011;9570;50.854;13.778;2023-04-07T05:52:09;10.57;;;7.35;;
18875;SDS011;9570;50.854;13.778;2023-04-07T05:54:35;10.00;;;6.63;;
18875;SDS011;9570;50.854;13.778;2023-04-07T05:57:01;10.13;;;6.87;;
18875;SDS011;9570;50.854;13.778;2023-04-07T05:59:27;10.70;;;6.90;;
18875;SDS011;9570;50.854;13.778;2023-04-07T06:01:53;9.83;;;7.30;;
18875;SDS011;9570;50.854;13.778;2023-04-07T06:04:18;13.33;;;7.37;;
18875;SDS011;9570;50.854;13.778;2023-04-07T06:06:44;12.30;;;7.80;;
18875;SDS011;9570;50.854;13.778;2023-04-07T06:09:10;12.40;;;8.10;;
18875;SDS011;9570;50.854;13.778;2023-04-07T06:11:35;10.83;;;7.87;;
18875;SDS011;9570;50.854;13.778;2023-04-07T06:14:00;11.63;;;7.40;;
18875;SDS011;9570;50.854;13.778;2023-04-07T06:16:26;11.10;;;7.40;;
18875;SDS011;9570;50.854;13.778;2023-04-07T06:18:51;14.00;;;8.30;;
18875;SDS011;9570;50.854;13.778;2023-04-07T06:21:17;15.00;;;9.70;;
18875;SDS011;9570;50.854;13.778;2023-04-07T06:23:42;12.13;;;7.87;;
18875;SDS011;9570;50.854;13.778;2023-04-07T06:26:11;11.77;;;7.93;;
18875;SDS011;9570;50.854;13.778;2023-04-07T06:28:37;9.90;;;6.55;;
18875;SDS011;9570;50.854;13.778;2023-04-07T06:31:03;8.70;;;6.70;;
18875;SDS011;9570;50.854;13.778;2023-04-07T06:33:29;9.35;;;6.70;;
18875;SDS011;9570;50.854;13.778;2023-04-07T06:35:55;10.37;;;7.10;;
18875;SDS011;9570;50.854;13.778;2023-04-07T06:38:20;9.57;;;7.13;;
18875;SDS011;9570;50.854;13.778;2023-04-07T06:40:46;13.73;;;7.77;;
18875;SDS011;9570;50.854;13.778;2023-04-07T06:43:11;9.77;;;7.53;;
18875;SDS011;9570;50.854;13.778;2023-04-07T06:45:37;12.20;;;7.67;;
18875;SDS011;9570;50.854;13.778;2023-04-07T06:48:02;10.60;;;7.57;;
18875;SDS011;9570;50.854;13.778;2023-04-07T06:50:28;11.53;;;7.67;;
18875;SDS011;9570;50.854;13.778;2023-04-07T06:52:53;12.53;;;7.87;;
18875;SDS011;9570;50.854;13.778;2023-04-07T06:55:19;10.60;;;7.40;;
18875;SDS011;9570;50.854;13.778;2023-04-07T06:57:45;10.20;;;7.13;;
18875;SDS011;9570;50.854;13.778;2023-04-07T07:00:10;11.27;;;7.13;;
18875;SDS011;9570;50.854;13.778;2023-04-07T07:02:36;9.97;;;6.67;;
18875;SDS011;9570;50.854;13.778;2023-04-07T07:05:01;8.60;;;6.47;;
18875;SDS011;9570;50.854;13.778;2023-04-07T07:07:28;8.47;;;6.20;;
18875;SDS011;9570;50.854;13.778;2023-04-07T07:09:54;8.50;;;5.90;;
18875;SDS011;9570;50.854;13.778;2023-04-07T07:12:20;9.80;;;5.57;;
18875;SDS011;9570;50.854;13.778;2023-04-07T07:14:45;9.47;;;6.87;;
18875;SDS011;9570;50.854;13.778;2023-04-07T07:17:11;9.87;;;5.53;;
18875;SDS011;9570;50.854;13.778;2023-04-07T07:19:36;8.43;;;6.20;;
18875;SDS011;9570;50.854;13.778;2023-04-07T07:22:02;9.07;;;6.57;;
18875;SDS011;9570;50.854;13.778;2023-04-07T07:24:28;9.07;;;6.60;;
18875;SDS011;9570;50.854;13.778;2023-04-07T07:26:57;8.17;;;6.30;;
18875;SDS011;9570;50.854;13.778;2023-04-07T07:29:23;7.77;;;6.20;;
18875;SDS011;9570;50.854;13.778;2023-04-07T07:31:49;7.73;;;6.10;;
18875;SDS011;9570;50.854;13.778;2023-04-07T07:34:14;9.20;;;5.53;;
18875;SDS011;9570;50.854;13.778;2023-04-07T07:36:40;7.70;;;5.13;;
18875;SDS011;9570;50.854;13.778;2023-04-07T07:39:05;6.80;;;5.10;;
18875;SDS011;9570;50.854;13.778;2023-04-07T07:41:31;6.73;;;5.37;;
18875;SDS011;9570;50.854;13.778;2023-04-07T07:43:56;8.40;;;5.53;;
18875;SDS011;9570;50.854;13.778;2023-04-07T07:46:22;7.77;;;5.73;;
18875;SDS011;9570;50.854;13.778;2023-04-07T07:48:49;8.90;;;5.97;;
18875;SDS011;9570;50.854;13.778;2023-04-07T07:51:15;7.53;;;5.63;;
18875;SDS011;9570;50.854;13.778;2023-04-07T07:53:42;8.60;;;5.77;;
18875;SDS011;9570;50.854;13.778;2023-04-07T07:56:08;7.67;;;5.93;;
18875;SDS011;9570;50.854;13.778;2023-04-07T07:58:34;9.33;;;6.27;;
18875;SDS011;9570;50.854;13.778;2023-04-07T08:00:59;10.47;;;5.90;;
18875;SDS011;9570;50.854;13.778;2023-04-07T08:03:25;7.83;;;5.83;;
18875;SDS011;9570;50.854;13.778;2023-04-07T08:05:50;8.53;;;5.67;;
18875;SDS011;9570;50.854;13.778;2023-04-07T08:08:16;9.27;;;6.00;;
18875;SDS011;9570;50.854;13.778;2023-04-07T08:10:41;9.60;;;6.20;;
18875;SDS011;9570;50.854;13.778;2023-04-07T08:13:07;6.87;;;5.07;;
18875;SDS011;9570;50.854;13.778;2023-04-07T08:15:32;6.10;;;4.70;;
18875;SDS011;9570;50.854;13.778;2023-04-07T08:17:58;9.00;;;5.17;;
18875;SDS011;9570;50.854;13.778;2023-04-07T08:20:25;9.07;;;5.90;;
18875;SDS011;9570;50.854;13.778;2023-04-07T08:22:51;10.27;;;5.97;;
18875;SDS011;9570;50.854;13.778;2023-04-07T08:25:17;6.40;;;5.07;;
18875;SDS011;9570;50.854;13.778;2023-04-07T08:27:43;9.63;;;5.83;;
18875;SDS011;9570;50.854;13.778;2023-04-07T08:30:08;9.93;;;6.30;;
18875;SDS011;9570;50.854;13.778;2023-04-07T08:35:00;11.40;;;5.50;;
18875;SDS011;9570;50.854;13.778;2023-04-07T08:37:26;7.73;;;5.50;;
18875;SDS011;9570;50.854;13.778;2023-04-07T08:39:51;9.17;;;5.17;;
18875;SDS011;9570;50.854;13.778;2023-04-07T08:42:17;7.53;;;4.93;;
18875;SDS011;9570;50.854;13.778;2023-04-07T08:44:45;7.57;;;4.93;;
18875;SDS011;9570;50.854;13.778;2023-04-07T08:47:12;7.77;;;5.30;;
18875;SDS011;9570;50.854;13.778;2023-04-07T08:49:39;6.97;;;5.20;;
18875;SDS011;9570;50.854;13.778;2023-04-07T08:52:07;8.70;;;5.80;;
18875;SDS011;9570;50.854;13.778;2023-04-07T08:54:36;7.27;;;5.57;;
18875;SDS011;9570;50.854;13.778;2023-04-07T08:57:02;7.50;;;5.00;;
18875;SDS011;9570;50.854;13.778;2023-04-07T08:59:28;7.53;;;5.07;;
18875;SDS011;9570;50.854;13.778;2023-04-07T09:01:57;7.60;;;5.03;;
18875;SDS011;9570;50.854;13.778;2023-04-07T09:04:23;8.40;;;5.57;;
18875;SDS011;9570;50.854;13.778;2023-04-07T09:06:49;8.10;;;5.17;;
18875;SDS011;9570;50.854;13.778;2023-04-07T09:09:14;10.70;;;5.73;;
18875;SDS011;9570;50.854;13.778;2023-04-07T09:11:40;9.03;;;5.20;;
18875;SDS011;9570;50.854;13.778;2023-04-07T09:14:05;9.83;;;6.00;;
18875;SDS011;9570;50.854;13.778;2023-04-07T09:16:31;10.53;;;5.30;;
18875;SDS011;9570;50.854;13.778;2023-04-07T09:18:57;8.77;;;5.30;;
18875;SDS011;9570;50.854;13.778;2023-04-07T09:21:23;8.60;;;5.93;;
18875;SDS011;9570;50.854;13.778;2023-04-07T09:23:48;7.00;;;5.10;;
18875;SDS011;9570;50.854;13.778;2023-04-07T09:28:44;9.90;;;5.17;;
18875;SDS011;9570;50.854;13.778;2023-04-07T09:31:12;6.60;;;5.17;;
18875;SDS011;9570;50.854;13.778;2023-04-07T09:33:37;9.57;;;4.97;;
18875;SDS011;9570;50.854;13.778;2023-04-07T09:36:04;9.27;;;5.30;;
18875;SDS011;9570;50.854;13.778;2023-04-07T09:38:33;6.80;;;5.10;;
18875;SDS011;9570;50.854;13.778;2023-04-07T09:41:13;6.70;;;4.80;;
18875;SDS011;9570;50.854;13.778;2023-04-07T09:43:43;7.30;;;5.33;;
18875;SDS011;9570;50.854;13.778;2023-04-07T09:46:11;8.53;;;5.10;;
18875;SDS011;9570;50.854;13.778;2023-04-07T09:48:41;7.77;;;4.93;;
18875;SDS011;9570;50.854;13.778;2023-04-07T09:51:11;8.90;;;5.27;;
18875;SDS011;9570;50.854;13.778;2023-04-07T09:53:45;7.93;;;5.30;;
18875;SDS011;9570;50.854;13.778;2023-04-07T09:56:17;9.33;;;5.13;;
18875;SDS011;9570;50.854;13.778;2023-04-07T09:58:46;6.87;;;5.10;;
18875;SDS011;9570;50.854;13.778;2023-04-07T10:01:15;9.47;;;5.37;;
18875;SDS011;9570;50.854;13.778;2023-04-07T10:03:41;9.90;;;5.30;;
18875;SDS011;9570;50.854;13.778;2023-04-07T10:06:07;6.43;;;4.53;;
18875;SDS011;9570;50.854;13.778;2023-04-07T10:08:34;7.17;;;4.57;;
18875;SDS011;9570;50.854;13.778;2023-04-07T10:11:01;8.10;;;4.60;;
18875;SDS011;9570;50.854;13.778;2023-04-07T10:13:28;7.73;;;4.80;;
18875;SDS011;9570;50.854;13.778;2023-04-07T10:15:55;7.70;;;4.60;;
18875;SDS011;9570;50.854;13.778;2023-04-07T10:18:21;6.80;;;4.73;;
18875;SDS011;9570;50.854;13.778;2023-04-07T10:20:50;9.40;;;5.20;;
18875;SDS011;9570;50.854;13.778;2023-04-07T10:23:20;8.37;;;5.07;;
18875;SDS011;9570;50.854;13.778;2023-04-07T10:25:50;6.83;;;4.67;;
